createdAt,value
2022-07-26T00:01:48.845Z,86080.31
2022-07-26T00:04:16.929Z,86057.31
2022-07-26T00:06:44.833Z,86080.41
2022-07-26T00:09:37.597Z,86079.16
2022-07-26T00:15:46.339Z,86079.72
2022-07-26T00:18:15.450Z,86060.41
2022-07-26T00:21:07.668Z,86073.69
2022-07-26T00:23:36.230Z,86081.59
2022-07-26T00:26:03.816Z,86078.88
2022-07-26T00:28:31.590Z,86073.44
2022-07-26T00:30:58.998Z,86067.66
2022-07-26T00:33:27.318Z,86064.16
2022-07-26T00:35:54.388Z,86050.53
2022-07-26T00:38:21.529Z,86075.31
2022-07-26T00:40:48.524Z,86057.94
2022-07-26T00:43:15.645Z,86056.75
2022-07-26T00:46:08.045Z,86073.44
2022-07-26T00:48:35.793Z,86078.63
2022-07-26T00:51:03.196Z,86059.75
2022-07-26T00:53:33.786Z,86037.00
2022-07-26T00:56:01.597Z,86071.22
2022-07-26T00:58:28.874Z,86054.28
2022-07-26T01:00:56.604Z,86068.41
2022-07-26T01:03:24.049Z,86059.41
2022-07-26T01:05:58.798Z,86073.94
2022-07-26T01:08:26.366Z,86072.34
2022-07-26T01:10:55.133Z,86058.13
2022-07-26T01:13:24.984Z,86050.63
2022-07-26T01:15:53.413Z,86040.84
2022-07-26T01:18:20.894Z,86055.56
2022-07-26T01:20:53.681Z,86023.72
2022-07-26T01:23:46.046Z,86042.78
2022-07-26T01:26:14.526Z,86050.97
2022-07-26T01:28:43.208Z,86056.25
2022-07-26T01:31:12.361Z,86039.41
2022-07-26T01:33:41.444Z,86034.47
2022-07-26T01:36:09.261Z,86040.41
2022-07-26T01:38:36.255Z,86019.38
2022-07-26T01:41:03.393Z,86037.00
2022-07-26T01:43:30.411Z,86046.19
2022-07-26T01:45:58.163Z,86037.16
2022-07-26T01:48:26.634Z,86026.53
2022-07-26T01:50:54.573Z,86021.09
2022-07-26T01:53:24.599Z,86039.81
2022-07-26T01:55:52.811Z,86030.03
2022-07-26T01:58:22.571Z,86014.94
2022-07-26T02:00:51.004Z,86022.53
2022-07-26T02:03:19.022Z,86043.91
2022-07-26T02:05:46.951Z,86035.22
2022-07-26T02:08:14.587Z,86040.75
2022-07-26T02:11:02.573Z,86031.81
2022-07-26T02:13:37.119Z,86022.53
2022-07-26T02:16:06.792Z,86031.97
2022-07-26T02:18:34.829Z,86037.59
2022-07-26T02:21:03.392Z,86017.72
2022-07-26T02:23:31.166Z,86007.25
2022-07-26T02:25:58.982Z,86033.94
2022-07-26T02:28:28.032Z,86036.75
2022-07-26T02:30:55.973Z,86028.53
2022-07-26T02:33:24.489Z,86032.09
2022-07-26T02:35:51.604Z,86008.19
2022-07-26T02:38:18.715Z,86031.50
2022-07-26T02:40:47.183Z,86025.22
2022-07-26T02:43:14.601Z,86030.47
2022-07-26T02:48:33.868Z,86017.44
2022-07-26T02:51:01.494Z,86030.44
2022-07-26T02:53:32.392Z,86005.31
2022-07-26T02:56:01.083Z,86023.25
2022-07-26T02:58:28.325Z,86026.53
2022-07-26T03:00:55.873Z,86015.19
2022-07-26T03:03:25.837Z,85982.91
2022-07-26T03:05:53.556Z,86031.13
2022-07-26T03:08:21.298Z,85995.69
2022-07-26T03:10:48.962Z,86020.47
2022-07-26T03:13:16.728Z,86031.47
2022-07-26T03:15:44.455Z,86032.56
2022-07-26T03:18:12.582Z,86025.84
2022-07-26T03:21:04.509Z,86039.47
2022-07-26T03:23:33.818Z,86023.88
2022-07-26T03:26:02.625Z,86037.66
2022-07-26T03:28:32.821Z,86050.84
2022-07-26T03:31:01.214Z,86038.94
2022-07-26T03:33:29.827Z,86039.47
2022-07-26T03:35:56.970Z,86043.72
2022-07-26T03:38:25.074Z,86046.75
2022-07-26T03:40:52.610Z,86050.16
2022-07-26T03:43:23.254Z,86051.00
2022-07-26T03:45:54.751Z,86036.69
2022-07-26T03:48:22.865Z,86046.38
2022-07-26T03:50:50.104Z,86060.88
2022-07-26T03:53:17.168Z,86053.91
2022-07-26T03:56:03.486Z,86043.16
2022-07-26T03:58:31.076Z,86059.94
2022-07-26T04:01:29.499Z,86060.78
2022-07-26T04:03:57.500Z,86053.03
2022-07-26T04:06:50.509Z,86045.56
2022-07-26T04:09:22.716Z,86037.75
2022-07-26T04:12:40.679Z,86058.94
2022-07-26T04:15:09.721Z,86035.16
2022-07-26T04:17:41.487Z,86046.16
2022-07-26T04:20:11.764Z,86054.75
2022-07-26T04:22:45.205Z,86030.00
2022-07-26T04:25:13.192Z,86032.66
2022-07-26T04:27:40.554Z,86046.81
2022-07-26T04:30:14.412Z,86039.13
2022-07-26T04:33:07.390Z,86046.63
2022-07-26T04:35:35.877Z,86033.69
2022-07-26T04:38:04.345Z,86053.44
2022-07-26T04:40:40.837Z,86043.25
2022-07-26T04:43:33.771Z,86052.50
2022-07-26T04:46:01.863Z,86052.44
2022-07-26T04:48:30.097Z,86050.91
2022-07-26T04:50:57.683Z,86047.00
2022-07-26T04:53:25.006Z,86044.09
2022-07-26T04:55:52.547Z,86056.22
2022-07-26T04:58:19.771Z,86054.69
2022-07-26T05:01:09.067Z,86055.97
2022-07-26T05:04:00.047Z,86040.22
2022-07-26T05:06:52.158Z,86048.91
2022-07-26T05:09:44.190Z,86028.31
2022-07-26T05:13:04.157Z,86054.53
2022-07-26T05:15:56.390Z,86055.72
2022-07-26T05:21:15.617Z,86040.84
2022-07-26T05:23:43.537Z,86036.84
2022-07-26T05:26:12.409Z,86041.69
2022-07-26T05:28:40.179Z,86059.28
2022-07-26T05:31:10.907Z,86024.91
2022-07-26T05:33:38.320Z,86030.84
2022-07-26T05:36:05.549Z,86025.22
2022-07-26T05:38:32.637Z,86027.41
2022-07-26T05:41:25.284Z,86016.19
2022-07-26T05:43:52.910Z,86027.41
2022-07-26T05:46:20.608Z,86034.09
2022-07-26T05:48:48.357Z,86047.94
2022-07-26T05:51:15.703Z,86047.56
2022-07-26T05:53:42.966Z,86017.16
2022-07-26T05:56:10.551Z,86056.50
2022-07-26T05:59:03.258Z,86036.41
2022-07-26T06:01:56.929Z,86051.22
2022-07-26T06:04:26.986Z,86025.13
2022-07-26T06:06:55.822Z,86038.50
2022-07-26T06:09:48.931Z,86051.25
2022-07-26T06:15:14.970Z,86051.72
2022-07-26T06:17:43.588Z,86026.47
2022-07-26T06:20:12.423Z,86035.38
2022-07-26T06:22:40.107Z,86038.97
2022-07-26T06:25:08.607Z,86034.38
2022-07-26T06:30:29.868Z,86026.75
2022-07-26T06:32:58.348Z,86010.50
2022-07-26T06:35:29.373Z,86018.50
2022-07-26T06:38:00.815Z,86017.41
2022-07-26T06:40:28.110Z,86016.03
2022-07-26T06:42:55.220Z,86005.91
2022-07-26T06:48:47.375Z,86041.06
2022-07-26T06:51:21.160Z,86006.81
2022-07-26T06:53:48.473Z,86017.13
2022-07-26T06:56:18.719Z,86038.50
2022-07-26T06:58:47.746Z,86018.25
2022-07-26T07:01:58.084Z,86022.81
2022-07-26T07:04:30.156Z,86010.59
2022-07-26T07:07:05.129Z,86026.66
2022-07-26T07:09:34.185Z,86030.16
2022-07-26T07:12:29.056Z,86019.19
2022-07-26T07:14:56.304Z,85989.38
2022-07-26T07:17:23.688Z,86035.44
2022-07-26T07:19:51.332Z,86031.03
2022-07-26T07:22:18.821Z,86033.38
2022-07-26T07:24:46.752Z,86030.25
2022-07-26T07:27:16.173Z,86002.38
2022-07-26T07:29:44.086Z,86033.38
2022-07-26T07:32:18.139Z,86015.72
2022-07-26T07:34:48.990Z,86023.09
2022-07-26T07:37:17.883Z,86030.13
2022-07-26T07:39:50.430Z,86014.78
2022-07-26T07:42:19.537Z,86011.47
2022-07-26T07:44:47.336Z,86033.91
2022-07-26T07:48:05.739Z,86031.88
2022-07-26T07:50:35.455Z,86033.78
2022-07-26T07:53:27.851Z,86038.66
2022-07-26T07:55:59.490Z,86037.19
2022-07-26T07:58:27.989Z,86017.41
2022-07-26T08:04:11.865Z,86025.94
2022-07-26T08:06:41.331Z,86006.09
2022-07-26T08:09:35.953Z,86027.16
2022-07-26T08:12:29.017Z,86045.91
2022-07-26T08:15:07.378Z,86006.75
2022-07-26T08:17:40.381Z,86022.22
2022-07-26T08:20:15.965Z,86021.97
2022-07-26T08:22:43.849Z,86029.25
2022-07-26T08:25:35.849Z,86026.59
2022-07-26T08:28:47.259Z,86028.38
2022-07-26T08:31:40.378Z,86002.88
2022-07-26T08:34:34.750Z,86009.16
2022-07-26T08:37:16.400Z,86000.09
2022-07-26T08:39:45.527Z,86017.25
2022-07-26T08:42:23.291Z,86026.00
2022-07-26T08:44:52.135Z,86017.53
2022-07-26T08:47:38.077Z,86010.50
2022-07-26T08:50:14.694Z,86022.41
2022-07-26T08:52:42.809Z,86005.38
2022-07-26T08:55:16.212Z,86007.56
2022-07-26T08:57:43.553Z,85999.59
2022-07-26T09:00:25.770Z,85999.75
2022-07-26T09:02:54.155Z,86003.84
2022-07-26T09:06:11.855Z,86013.88
2022-07-26T09:08:39.914Z,86003.22
2022-07-26T09:11:26.359Z,86013.22
2022-07-26T09:14:07.767Z,85952.22
2022-07-26T09:17:00.543Z,86009.94
2022-07-26T09:19:29.376Z,86006.72
2022-07-26T09:22:10.124Z,86000.63
2022-07-26T09:24:44.161Z,86007.66
2022-07-26T09:27:15.664Z,85997.66
2022-07-26T09:30:58.681Z,86007.91
2022-07-26T09:33:27.393Z,86000.59
2022-07-26T09:36:03.065Z,85990.72
2022-07-26T09:38:43.180Z,85998.28
2022-07-26T09:41:21.010Z,85998.28
2022-07-26T09:43:53.684Z,85983.94
2022-07-26T09:46:26.344Z,85990.50
2022-07-26T09:49:11.885Z,85997.53
2022-07-26T09:52:08.673Z,85996.84
2022-07-26T09:55:01.488Z,86002.75
2022-07-26T09:57:54.938Z,85985.03
2022-07-26T10:01:39.529Z,85993.63
2022-07-26T10:04:32.606Z,85993.94
2022-07-26T10:07:03.239Z,85985.56
2022-07-26T10:09:41.206Z,85988.69
2022-07-26T10:15:04.906Z,85978.69
2022-07-26T10:17:39.181Z,85990.31
2022-07-26T10:23:47.153Z,85993.50
2022-07-26T10:26:36.401Z,85978.50
2022-07-26T10:32:40.192Z,85952.50
2022-07-26T10:35:31.263Z,85975.66
2022-07-26T10:38:10.239Z,85950.19
2022-07-26T10:40:40.006Z,85983.75
2022-07-26T10:43:37.743Z,85972.59
2022-07-26T10:46:23.981Z,85974.00
2022-07-26T10:49:04.295Z,85975.03
2022-07-26T10:51:40.206Z,85963.66
2022-07-26T10:54:12.177Z,85973.72
2022-07-26T10:56:41.149Z,85952.56
2022-07-26T10:59:08.713Z,85967.97
2022-07-26T11:01:42.215Z,85952.22
2022-07-26T11:04:21.054Z,85950.88
2022-07-26T11:06:48.374Z,85952.78
2022-07-26T11:09:18.603Z,85940.63
2022-07-26T11:11:48.975Z,85944.69
2022-07-26T11:14:47.939Z,85938.72
2022-07-26T11:17:30.389Z,85926.63
2022-07-26T11:19:59.061Z,85934.00
2022-07-26T11:22:36.699Z,85937.03
2022-07-26T11:25:05.638Z,85905.44
2022-07-26T11:27:37.195Z,85923.94
2022-07-26T11:33:22.506Z,85904.44
2022-07-26T11:35:52.973Z,85923.50
2022-07-26T11:38:20.799Z,85918.66
2022-07-26T11:40:48.215Z,85900.34
2022-07-26T11:43:16.026Z,85915.31
2022-07-26T11:45:51.800Z,85891.09
2022-07-26T11:48:50.493Z,85925.72
2022-07-26T11:51:20.688Z,85926.44
2022-07-26T11:54:13.500Z,85919.69
2022-07-26T11:56:56.120Z,85918.00
2022-07-26T11:59:49.043Z,85916.94
2022-07-26T12:02:16.801Z,85896.78
2022-07-26T12:04:45.037Z,85922.13
2022-07-26T12:07:20.428Z,85918.25
2022-07-26T12:09:48.017Z,85916.53
2022-07-26T12:12:42.879Z,85918.84
2022-07-26T12:15:35.774Z,85913.78
2022-07-26T12:18:04.451Z,85898.56
2022-07-26T12:20:31.669Z,85909.81
2022-07-26T12:23:05.518Z,85911.66
2022-07-26T12:25:33.714Z,85908.66
2022-07-26T12:28:01.245Z,85885.63
2022-07-26T12:33:27.056Z,85899.16
2022-07-26T12:36:01.233Z,85881.19
2022-07-26T12:41:40.532Z,85903.25
2022-07-26T12:44:13.173Z,85893.94
2022-07-26T12:46:41.477Z,85909.50
2022-07-26T12:49:08.992Z,85880.50
2022-07-26T12:51:37.552Z,85902.41
2022-07-26T12:54:06.752Z,85834.38
2022-07-26T12:56:35.095Z,85874.41
2022-07-26T12:59:02.446Z,85902.06
2022-07-26T13:01:55.353Z,85900.72
2022-07-26T13:04:22.986Z,85905.31
2022-07-26T13:06:50.317Z,85900.97
2022-07-26T13:09:17.774Z,85881.75
2022-07-26T13:11:45.188Z,85880.06
2022-07-26T13:14:38.626Z,85879.75
2022-07-26T13:17:32.429Z,85893.81
2022-07-26T13:20:00.936Z,85879.69
2022-07-26T13:22:29.226Z,85875.41
2022-07-26T13:25:22.787Z,85891.50
2022-07-26T13:27:52.241Z,85889.25
2022-07-26T13:31:09.344Z,85883.34
2022-07-26T13:33:39.566Z,85882.56
2022-07-26T13:36:06.905Z,85859.56
2022-07-26T13:38:34.897Z,85811.19
2022-07-26T13:41:06.826Z,85888.53
2022-07-26T13:44:00.254Z,85880.50
2022-07-26T13:46:33.516Z,85893.09
2022-07-26T13:49:04.899Z,85871.53
2022-07-26T13:51:53.215Z,85892.03
2022-07-26T13:54:23.687Z,85883.50
2022-07-26T13:56:51.856Z,85887.69
2022-07-26T13:59:45.719Z,85883.50
2022-07-26T14:02:13.399Z,85885.00
2022-07-26T14:04:41.038Z,85885.94
2022-07-26T14:07:08.464Z,85882.84
2022-07-26T14:09:39.107Z,85881.41
2022-07-26T14:12:07.256Z,85873.47
2022-07-26T14:14:36.326Z,85883.50
2022-07-26T14:17:04.682Z,85854.22
2022-07-26T14:19:32.111Z,85878.56
2022-07-26T14:22:00.658Z,85847.22
2022-07-26T14:24:29.312Z,85882.91
2022-07-26T14:27:22.696Z,85878.94
2022-07-26T14:30:40.646Z,85887.25
2022-07-26T14:33:33.393Z,85881.69
2022-07-26T14:36:02.950Z,85871.66
2022-07-26T14:38:31.640Z,85877.06
2022-07-26T14:41:02.348Z,85874.22
2022-07-26T14:43:30.477Z,85879.16
2022-07-26T14:45:58.516Z,85878.25
2022-07-26T14:48:52.787Z,85873.44
2022-07-26T14:51:14.579Z,85878.09
2022-07-26T14:54:08.836Z,85878.31
2022-07-26T14:56:37.444Z,85882.66
2022-07-26T14:59:32.883Z,85887.38
2022-07-26T15:02:05.489Z,85879.97
2022-07-26T15:04:33.753Z,85884.81
2022-07-26T15:07:00.856Z,85885.28
2022-07-26T15:09:28.806Z,85879.19
2022-07-26T15:11:55.955Z,85860.31
2022-07-26T15:14:24.411Z,85877.16
2022-07-26T15:16:51.748Z,85861.94
2022-07-26T15:19:25.373Z,85863.28
2022-07-26T15:21:55.346Z,85851.44
2022-07-26T15:24:24.316Z,85881.03
2022-07-26T15:26:52.166Z,85879.22
2022-07-26T15:29:20.751Z,85867.63
2022-07-26T15:31:49.319Z,85890.31
2022-07-26T15:34:41.700Z,85885.97
2022-07-26T15:40:01.992Z,85880.34
2022-07-26T15:42:36.381Z,85892.00
2022-07-26T15:45:09.536Z,85865.41
2022-07-26T15:48:03.167Z,85858.34
2022-07-26T15:50:53.178Z,85892.38
2022-07-26T15:56:37.119Z,85889.47
2022-07-26T15:59:07.356Z,85887.19
2022-07-26T16:01:35.889Z,85896.91
2022-07-26T16:04:05.157Z,85884.72
2022-07-26T16:06:33.867Z,85883.81
2022-07-26T16:09:26.157Z,85887.47
2022-07-26T16:11:53.753Z,85873.88
2022-07-26T16:14:25.941Z,85878.22
2022-07-26T16:16:54.351Z,85882.94
2022-07-26T16:19:21.989Z,85897.72
2022-07-26T16:21:50.607Z,85905.47
2022-07-26T16:24:19.330Z,85888.22
2022-07-26T16:27:12.147Z,85907.41
2022-07-26T16:29:41.972Z,85896.88
2022-07-26T16:32:11.957Z,85901.22
2022-07-26T16:34:40.937Z,85897.13
2022-07-26T16:37:08.195Z,85908.66
2022-07-26T16:39:35.197Z,85912.31
2022-07-26T16:42:06.799Z,85881.66
2022-07-26T16:44:36.595Z,85904.88
2022-07-26T16:47:05.076Z,85905.03
2022-07-26T16:49:33.853Z,85905.41
2022-07-26T16:52:01.163Z,85907.44
2022-07-26T16:54:28.765Z,85906.50
2022-07-26T16:56:57.998Z,85915.56
2022-07-26T16:59:50.179Z,85911.91
2022-07-26T17:02:18.599Z,85895.28
2022-07-26T17:04:46.384Z,85901.50
2022-07-26T17:07:29.133Z,85902.16
2022-07-26T17:09:57.232Z,85893.00
2022-07-26T17:12:52.837Z,85904.47
2022-07-26T17:18:16.848Z,85899.63
2022-07-26T17:21:08.443Z,85890.44
2022-07-26T17:23:36.734Z,85898.03
2022-07-26T17:26:06.224Z,85875.75
2022-07-26T17:28:34.554Z,85894.91
2022-07-26T17:31:02.126Z,85912.91
2022-07-26T17:33:30.226Z,85913.03
2022-07-26T17:36:02.164Z,85883.19
2022-07-26T17:38:31.805Z,85905.47
2022-07-26T17:40:58.740Z,85904.78
2022-07-26T17:43:36.752Z,85911.38
2022-07-26T17:46:05.570Z,85886.97
2022-07-26T17:48:33.902Z,85908.84
2022-07-26T17:51:01.209Z,85899.41
2022-07-26T17:54:18.223Z,85911.69
2022-07-26T17:56:46.085Z,85908.84
2022-07-26T17:59:14.615Z,85913.84
2022-07-26T18:02:08.215Z,85909.78
2022-07-26T18:04:36.492Z,85907.34
2022-07-26T18:07:03.771Z,85916.53
2022-07-26T18:09:31.207Z,85897.78
2022-07-26T18:11:59.174Z,85925.63
2022-07-26T18:14:51.063Z,85923.75
2022-07-26T18:17:18.973Z,85908.72
2022-07-26T18:19:46.540Z,85909.66
2022-07-26T18:22:14.579Z,85944.53
2022-07-26T18:25:07.986Z,85929.41
2022-07-26T18:27:40.678Z,85935.47
2022-07-26T18:30:10.979Z,85924.78
2022-07-26T18:32:39.525Z,85920.31
2022-07-26T18:35:08.422Z,85938.84
2022-07-26T18:37:35.610Z,85933.28
2022-07-26T18:40:02.653Z,85941.09
2022-07-26T18:42:29.806Z,85914.38
2022-07-26T18:44:57.471Z,85934.25
2022-07-26T18:47:26.735Z,85912.00
2022-07-26T18:49:54.375Z,85932.44
2022-07-26T18:52:28.666Z,85922.69
2022-07-26T18:55:24.962Z,85939.97
2022-07-26T18:57:52.882Z,85920.91
2022-07-26T19:00:22.824Z,85947.38
2022-07-26T19:02:52.374Z,85939.25
2022-07-26T19:05:24.227Z,85938.84
2022-07-26T19:07:52.704Z,85911.13
2022-07-26T19:10:20.416Z,85937.31
2022-07-26T19:12:48.861Z,85943.13
2022-07-26T19:15:16.922Z,85932.00
2022-07-26T19:17:45.310Z,85941.91
2022-07-26T19:20:36.999Z,85947.81
2022-07-26T19:23:31.299Z,85921.00
2022-07-26T19:26:24.543Z,85953.72
2022-07-26T19:28:51.862Z,85956.00
2022-07-26T19:31:20.271Z,85933.78
2022-07-26T19:33:48.244Z,85948.00
2022-07-26T19:36:18.199Z,85955.94
2022-07-26T19:38:53.125Z,85922.06
2022-07-26T19:41:20.164Z,85943.19
2022-07-26T19:43:47.812Z,85943.31
2022-07-26T19:46:15.474Z,85941.31
2022-07-26T19:48:43.649Z,85944.31
2022-07-26T19:51:11.141Z,85945.50
2022-07-26T19:56:55.186Z,85948.16
2022-07-26T19:59:48.467Z,85951.69
2022-07-26T20:02:16.773Z,85950.03
2022-07-26T20:04:46.256Z,85946.00
2022-07-26T20:07:19.862Z,85920.38
2022-07-26T20:09:48.616Z,85953.00
2022-07-26T20:12:43.058Z,85956.63
2022-07-26T20:15:12.256Z,85940.41
2022-07-26T20:17:41.457Z,85970.97
2022-07-26T20:20:10.412Z,85947.88
2022-07-26T20:22:38.432Z,85953.31
2022-07-26T20:25:07.527Z,85945.53
2022-07-26T20:27:37.370Z,85962.38
2022-07-26T20:30:06.891Z,85944.78
2022-07-26T20:32:34.218Z,85968.47
2022-07-26T20:35:01.970Z,85956.44
2022-07-26T20:37:29.038Z,85934.16
2022-07-26T20:39:56.240Z,85937.13
2022-07-26T20:42:23.649Z,85961.16
2022-07-26T20:44:53.053Z,85947.78
2022-07-26T20:47:45.256Z,85966.41
2022-07-26T20:50:13.266Z,85952.06
2022-07-26T20:53:30.157Z,85979.63
2022-07-26T20:56:22.695Z,85973.09
2022-07-26T20:58:50.380Z,85960.88
2022-07-26T21:01:17.995Z,85963.69
2022-07-26T21:03:45.407Z,85976.72
2022-07-26T21:06:13.091Z,85960.88
2022-07-26T21:08:41.910Z,85983.22
2022-07-26T21:11:08.933Z,85952.28
2022-07-26T21:13:36.928Z,85950.13
2022-07-26T21:16:04.643Z,85972.16
2022-07-26T21:18:38.555Z,85978.72
2022-07-26T21:21:06.646Z,85950.03
2022-07-26T21:23:34.762Z,85941.44
2022-07-26T21:26:26.893Z,85978.28
2022-07-26T21:28:54.398Z,85982.09
2022-07-26T21:31:23.979Z,85945.47
2022-07-26T21:34:16.174Z,85972.50
2022-07-26T21:36:43.876Z,85972.06
2022-07-26T21:39:11.755Z,85936.22
2022-07-26T21:41:40.263Z,85972.84
2022-07-26T21:44:07.218Z,85975.09
2022-07-26T21:46:35.385Z,85970.34
2022-07-26T21:49:03.554Z,85955.44
2022-07-26T21:51:31.419Z,85971.69
2022-07-26T21:54:22.914Z,85963.56
2022-07-26T21:56:51.002Z,85956.78
2022-07-26T21:59:43.226Z,85959.72
2022-07-26T22:02:11.228Z,85947.63
2022-07-26T22:04:38.872Z,85947.63
2022-07-26T22:07:06.826Z,85957.47
2022-07-26T22:09:34.848Z,85961.28
2022-07-26T22:12:02.258Z,85954.94
2022-07-26T22:14:53.955Z,85956.53
2022-07-26T22:17:21.992Z,85957.41
2022-07-26T22:19:49.457Z,85951.28
2022-07-26T22:22:17.573Z,85952.97
2022-07-26T22:24:45.029Z,85947.88
2022-07-26T22:27:13.213Z,85958.72
2022-07-26T22:29:40.741Z,85937.00
2022-07-26T22:32:08.944Z,85925.47
2022-07-26T22:34:36.583Z,85950.59
2022-07-26T22:37:29.355Z,85942.66
2022-07-26T22:39:56.782Z,85943.91
2022-07-26T22:42:23.756Z,85924.13
2022-07-26T22:44:50.849Z,85944.25
2022-07-26T22:47:55.796Z,85949.88
2022-07-26T22:50:49.540Z,85950.09
2022-07-26T22:54:31.944Z,85948.28
2022-07-26T22:56:59.917Z,85926.56
2022-07-26T22:59:52.143Z,85939.44
2022-07-26T23:02:20.207Z,85952.41
2022-07-26T23:04:47.579Z,85948.91
2022-07-26T23:07:15.282Z,85926.50
2022-07-26T23:09:46.327Z,85942.09
2022-07-26T23:12:13.539Z,85949.69
2022-07-26T23:15:07.372Z,85954.06
2022-07-26T23:17:37.760Z,85939.34
2022-07-26T23:20:30.433Z,85955.75
2022-07-26T23:22:58.003Z,85933.72
2022-07-26T23:25:25.365Z,85923.16
2022-07-26T23:27:53.572Z,85950.13
2022-07-26T23:30:45.770Z,85953.25
2022-07-26T23:33:19.365Z,85939.09
2022-07-26T23:36:07.450Z,85909.25
2022-07-26T23:38:35.069Z,85954.13
2022-07-26T23:41:01.971Z,85944.53
2022-07-26T23:43:29.101Z,85925.16
2022-07-26T23:45:57.386Z,85936.38
2022-07-26T23:48:25.108Z,85916.34
2022-07-26T23:50:53.248Z,85942.44
2022-07-26T23:56:37.140Z,85931.88
2022-07-26T23:59:06.132Z,85947.03
